Terminal Aerodrome Forecast
Issued by NWS Wilmington, OH

Current Version | Previous Version | Graphics & Text | Print | Product List | Glossary On
Versions: 1 2 3 4 5 6 7 8 9 10 11 12 13 14 15 16 17 18 19 20 21 22 23 24 25
336
FTUS41 KILN 112332
TAFDAY
TAF
KDAY 112332Z 1200/1224 13009KT P6SM BKN150
     FM120300 24010KT P6SM BKN100
     FM120600 27012G22KT P6SM OVC022
     FM120800 30015G28KT P6SM VCSH OVC015
     FM121200 31016G31KT 3SM -SHSN OVC012
     FM121900 30016G31KT P6SM VCSH OVC022=

USA.gov is the U.S. government's official web portal to all federal, state and local government web resources and services.